Time;durP1;ratioP1;P1;durP2;ratioP2;P2;SDS_P1;SDS_P2;PMS_P1;PMS_P2;Temp;Humidity;BMP_temperature;BMP_pressure;BME280_temperature;BME280_humidity;BME280_pressure;Samples;Min_cycle;Max_cycle;Signal;HPM_P1;HPM_P2
2022/04/01 00:01:52;;;;;;;;;;;14.20;99.90;;;;;;6246424;23;19934;-70
2022/04/01 00:04:18;;;;;;;;;;;14.20;99.90;;;;;;6246112;23;19958;-71
2022/04/01 00:06:43;;;;;;;;;;;14.20;99.90;;;;;;6246247;23;19904;-71
2022/04/01 00:09:09;;;;;;;;;;;14.20;99.90;;;;;;6245943;23;19907;-71
2022/04/01 00:11:35;;;;;;;;;;;14.20;99.90;;;;;;6246534;23;19904;-71
2022/04/01 00:14:01;;;;;;;;;;;14.30;99.90;;;;;;6218847;23;19904;-70
2022/04/01 00:16:27;;;;;;;;;;;14.30;99.90;;;;;;6245986;23;19939;-72
2022/04/01 00:18:53;;;;;;;;;;;14.20;99.90;;;;;;6245826;23;19916;-70
2022/04/01 00:21:19;;;;;;;;;;;14.30;99.90;;;;;;6219511;23;19912;-71
2022/04/01 00:23:44;;;;;;;;;;;14.30;99.90;;;;;;6218817;23;20235;-71
2022/04/01 00:26:10;;;;;;;;;;;14.30;99.90;;;;;;6245652;23;19926;-70
2022/04/01 00:28:36;;;;;;;;;;;14.30;99.90;;;;;;6245780;23;19926;-71
2022/04/01 00:31:02;;;;;;;;;;;14.20;99.90;;;;;;6245790;23;19904;-72
2022/04/01 00:33:28;;;;;;;;;;;14.10;99.90;;;;;;6245805;23;19912;-72
2022/04/01 00:35:53;;;;;;;;;;;14.00;99.90;;;;;;6245793;23;19904;-71
2022/04/01 00:38:19;;;;;;;;;;;13.90;99.90;;;;;;6246186;23;19962;-71
2022/04/01 00:40:46;;;;;;;;;;;13.90;99.90;;;;;;6245548;23;20006;-71
2022/04/01 00:43:12;;;;;;;;;;;13.90;99.90;;;;;;6246261;23;19957;-70
2022/04/01 00:45:38;;;;;;;;;;;13.90;99.90;;;;;;6245659;23;19962;-71
2022/04/01 00:48:04;;;;;;;;;;;14.00;99.90;;;;;;6246171;23;19988;-71
2022/04/01 00:50:31;;;;;;;;;;;14.00;99.90;;;;;;6245817;23;20412;-71
2022/04/01 00:52:58;;;;;;;;;;;14.00;99.90;;;;;;6245409;23;19907;-71
2022/04/01 00:55:23;;;;;;;;;;;14.00;99.90;;;;;;6218262;23;19980;-71
2022/04/01 00:57:49;;;;;;;;;;;14.00;99.90;;;;;;6245498;23;20372;-70
2022/04/01 01:00:15;;;;;;;;;;;14.00;99.90;;;;;;6245380;23;20045;-71
2022/04/01 01:02:41;;;;;;;;;;;14.00;99.90;;;;;;6245766;23;19930;-71
2022/04/01 01:05:07;;;;;;;;;;;14.00;99.90;;;;;;6245463;23;19903;-71
2022/04/01 01:07:34;;;;;;;;;;;13.90;99.90;;;;;;6245924;23;19916;-71
2022/04/01 01:10:00;;;;;;;;;;;14.00;99.90;;;;;;6246115;23;19907;-70
2022/04/01 01:12:26;;;;;;;;;;;14.00;99.90;;;;;;6245768;23;19903;-70
2022/04/01 01:14:53;;;;;;;;;;;14.00;99.90;;;;;;6245309;23;19904;-71
2022/04/01 01:17:19;;;;;;;;;;;14.00;99.90;;;;;;6245119;23;19951;-72
2022/04/01 01:19:45;;;;;;;;;;;14.00;99.90;;;;;;6245722;23;19986;-71
2022/04/01 01:22:12;;;;;;;;;;;14.00;99.90;;;;;;6245871;23;19954;-70
2022/04/01 01:24:40;;;;;;;;;;;14.00;99.90;;;;;;6245419;23;19903;-71
2022/04/01 01:27:06;;;;;;;;;;;14.00;99.90;;;;;;6245273;23;19927;-71
2022/04/01 01:29:33;;;;;;;;;;;13.90;99.90;;;;;;6245290;23;20335;-72
2022/04/01 01:32:01;;;;;;;;;;;13.90;99.90;;;;;;6245809;23;19903;-72
2022/04/01 01:34:31;;;;;;;;;;;14.00;99.90;;;;;;6245445;23;19911;-71
2022/04/01 01:37:10;;;;;;;;;;;13.90;99.90;;;;;;6245264;23;19908;-68
2022/04/01 01:40:16;;;;;;;;;;;13.90;99.90;;;;;;6245434;23;19903;-68
2022/04/01 01:43:17;;;;;;;;;;;13.90;99.90;;;;;;6245079;23;19911;-68
2022/04/01 01:46:21;;;;;;;;;;;13.90;99.90;;;;;;6215039;23;19903;-68
2022/04/01 01:48:47;;;;;;;;;;;13.80;99.90;;;;;;6245284;23;20296;-70
2022/04/01 01:56:42;;;;;;;;;;;13.70;99.90;;;;;;6245134;23;19930;-71
2022/04/01 01:59:11;;;;;;;;;;;13.60;99.90;;;;;;6245385;23;19920;-71
2022/04/01 02:01:41;;;;;;;;;;;13.60;99.90;;;;;;6245141;23;19911;-70
2022/04/01 02:04:07;;;;;;;;;;;13.50;99.90;;;;;;6244957;23;19916;-71
2022/04/01 02:06:33;;;;;;;;;;;13.50;99.90;;;;;;6244883;23;19903;-70
2022/04/01 02:08:59;;;;;;;;;;;13.50;99.90;;;;;;6244499;23;19904;-71
2022/04/01 02:11:25;;;;;;;;;;;13.50;99.90;;;;;;6245367;23;19949;-71
2022/04/01 02:14:30;;;;;;;;;;;13.50;99.90;;;;;;6244899;23;19914;-68
2022/04/01 02:16:57;;;;;;;;;;;13.60;99.90;;;;;;6238964;23;19908;-71
2022/04/01 02:19:23;;;;;;;;;;;13.60;99.90;;;;;;6244651;23;19966;-71
2022/04/01 02:21:53;;;;;;;;;;;13.50;99.90;;;;;;6244163;23;19918;-71
2022/04/01 02:24:20;;;;;;;;;;;13.50;99.90;;;;;;6244526;23;20359;-71
2022/04/01 02:26:47;;;;;;;;;;;13.60;99.90;;;;;;6244267;23;19987;-72
2022/04/01 02:29:19;;;;;;;;;;;13.50;99.90;;;;;;6244463;23;19983;-72
2022/04/01 02:31:47;;;;;;;;;;;13.50;99.90;;;;;;6217483;23;19985;-70
2022/04/01 02:34:13;;;;;;;;;;;13.60;99.90;;;;;;6244513;23;19911;-71
2022/04/01 02:36:39;;;;;;;;;;;13.50;99.90;;;;;;6244481;23;19904;-71
2022/04/01 02:39:05;;;;;;;;;;;13.50;99.90;;;;;;6244606;23;19907;-70
2022/04/01 02:41:31;;;;;;;;;;;13.40;99.90;;;;;;6244346;23;19923;-71
2022/04/01 02:44:08;;;;;;;;;;;13.40;99.90;;;;;;6244280;23;20205;-70
2022/04/01 02:46:36;;;;;;;;;;;13.40;99.90;;;;;;6217169;23;20328;-71
2022/04/01 02:49:06;;;;;;;;;;;13.30;99.90;;;;;;6244840;23;20326;-70
2022/04/01 02:51:33;;;;;;;;;;;13.30;99.90;;;;;;6244531;23;19935;-71
2022/04/01 02:53:59;;;;;;;;;;;13.30;99.90;;;;;;6217254;23;19903;-72
2022/04/01 02:56:25;;;;;;;;;;;13.30;99.90;;;;;;6244498;23;20336;-71
2022/04/01 02:58:51;;;;;;;;;;;13.40;99.90;;;;;;6217646;23;19931;-70
2022/04/01 03:01:17;;;;;;;;;;;13.30;99.90;;;;;;6245014;23;19915;-71
2022/04/01 03:03:43;;;;;;;;;;;13.30;99.90;;;;;;6244638;23;19993;-71
2022/04/01 03:06:09;;;;;;;;;;;13.30;99.90;;;;;;6245223;23;20027;-71
2022/04/01 03:08:35;;;;;;;;;;;13.30;99.90;;;;;;6245592;23;19903;-71
2022/04/01 03:11:00;;;;;;;;;;;13.30;99.90;;;;;;6245788;23;20328;-70
2022/04/01 03:13:26;;;;;;;;;;;13.30;99.90;;;;;;6245623;23;19986;-71
2022/04/01 03:15:52;;;;;;;;;;;13.30;99.90;;;;;;6245785;23;19970;-71
2022/04/01 03:18:18;;;;;;;;;;;13.30;99.90;;;;;;6244741;23;19915;-70
2022/04/01 03:20:45;;;;;;;;;;;13.30;99.90;;;;;;6245328;23;20035;-71
2022/04/01 03:23:11;;;;;;;;;;;13.30;99.90;;;;;;6245111;23;20281;-70
2022/04/01 03:25:37;;;;;;;;;;;13.30;99.90;;;;;;6246576;23;19910;-71
2022/04/01 03:28:04;;;;;;;;;;;13.20;99.90;;;;;;6245845;23;19931;-71
2022/04/01 03:30:29;;;;;;;;;;;13.20;99.90;;;;;;6246473;23;19904;-71
2022/04/01 03:32:55;;;;;;;;;;;13.30;99.90;;;;;;6245839;23;19999;-71
2022/04/01 03:35:22;;;;;;;;;;;13.30;99.90;;;;;;6246095;23;19904;-70
2022/04/01 03:37:49;;;;;;;;;;;13.20;99.90;;;;;;6245792;23;19903;-71
2022/04/01 03:40:15;;;;;;;;;;;13.10;99.90;;;;;;6218663;23;19911;-70
2022/04/01 03:42:42;;;;;;;;;;;13.20;99.90;;;;;;6218256;23;19904;-70
2022/04/01 03:45:08;;;;;;;;;;;13.20;99.90;;;;;;6245559;23;19904;-71
2022/04/01 03:47:38;;;;;;;;;;;13.20;99.90;;;;;;6245491;23;20380;-70
2022/04/01 03:50:04;;;;;;;;;;;13.10;99.90;;;;;;6218266;23;19926;-71
2022/04/01 03:52:31;;;;;;;;;;;13.10;99.90;;;;;;6245778;23;19960;-70
2022/04/01 03:55:01;;;;;;;;;;;13.10;99.90;;;;;;6245376;23;19904;-70
2022/04/01 03:57:33;;;;;;;;;;;13.10;99.90;;;;;;6245857;23;19903;-70
2022/04/01 03:59:58;;;;;;;;;;;13.10;99.90;;;;;;6245475;23;20266;-71
2022/04/01 04:02:24;;;;;;;;;;;13.10;99.90;;;;;;6218816;23;19935;-72
2022/04/01 04:04:51;;;;;;;;;;;13.10;99.90;;;;;;6245407;23;19911;-72
2022/04/01 04:07:17;;;;;;;;;;;13.00;99.90;;;;;;6245919;23;19927;-71
2022/04/01 04:09:44;;;;;;;;;;;13.00;99.90;;;;;;6218773;23;19927;-72
2022/04/01 04:12:13;;;;;;;;;;;13.00;99.90;;;;;;6245605;23;19950;-70
2022/04/01 04:14:41;;;;;;;;;;;13.00;99.90;;;;;;6245870;23;19904;-72
2022/04/01 04:17:19;;;;;;;;;;;13.00;99.90;;;;;;6245586;23;19904;-73
2022/04/01 04:19:51;;;;;;;;;;;13.00;99.90;;;;;;6246679;23;19907;-72
2022/04/01 04:22:32;;;;;;;;;;;13.00;99.90;;;;;;6245970;23;19911;-73
2022/04/01 04:24:58;;;;;;;;;;;13.00;99.90;;;;;;6246606;23;19938;-72
2022/04/01 04:27:29;;;;;;;;;;;13.00;99.90;;;;;;6245898;23;19911;-72
2022/04/01 04:30:07;;;;;;;;;;;13.10;99.90;;;;;;6245771;23;19987;-73
2022/04/01 04:32:34;;;;;;;;;;;13.10;99.90;;;;;;6247711;23;19990;-72
2022/04/01 04:35:07;;;;;;;;;;;13.20;99.90;;;;;;6247764;23;19930;-73
2022/04/01 04:37:35;;;;;;;;;;;13.20;99.90;;;;;;6248330;23;19904;-73
2022/04/01 04:40:01;;;;;;;;;;;13.20;99.90;;;;;;6247626;23;20023;-72
2022/04/01 04:42:27;;;;;;;;;;;13.30;99.90;;;;;;6248389;23;19907;-73
2022/04/01 04:44:53;;;;;;;;;;;13.30;99.90;;;;;;6247698;23;19982;-72
2022/04/01 04:47:27;;;;;;;;;;;13.40;99.90;;;;;;6247898;23;19911;-71
2022/04/01 04:49:56;;;;;;;;;;;13.40;99.90;;;;;;6247591;23;19925;-72
2022/04/01 04:52:26;;;;;;;;;;;13.40;99.90;;;;;;6246888;23;20256;-72
2022/04/01 04:54:52;;;;;;;;;;;13.50;99.90;;;;;;6247511;23;20441;-72
2022/04/01 04:57:19;;;;;;;;;;;13.50;99.90;;;;;;6248238;23;19951;-71
2022/04/01 04:59:46;;;;;;;;;;;13.50;99.90;;;;;;6247687;23;19904;-72
2022/04/01 05:02:20;;;;;;;;;;;13.50;99.90;;;;;;6247161;23;19912;-72
2022/04/01 05:05:08;;;;;;;;;;;13.40;99.90;;;;;;6247915;23;19965;-72
2022/04/01 05:07:40;;;;;;;;;;;13.50;99.90;;;;;;6246380;23;20279;-73
2022/04/01 05:10:08;;;;;;;;;;;13.50;99.90;;;;;;6247457;23;19904;-72
2022/04/01 05:12:42;;;;;;;;;;;13.40;99.90;;;;;;6247231;23;19986;-73
2022/04/01 05:15:09;;;;;;;;;;;13.40;99.90;;;;;;6247210;23;19926;-73
2022/04/01 05:17:37;;;;;;;;;;;13.40;99.90;;;;;;6246981;23;19991;-71
2022/04/01 05:20:16;;;;;;;;;;;13.40;99.90;;;;;;6247615;23;20267;-72
2022/04/01 05:22:44;;;;;;;;;;;13.40;99.90;;;;;;6248404;23;20368;-73
2022/04/01 05:25:14;;;;;;;;;;;13.40;99.90;;;;;;6247748;23;19982;-73
2022/04/01 05:27:45;;;;;;;;;;;13.40;99.90;;;;;;6248651;23;19904;-73
2022/04/01 05:30:16;;;;;;;;;;;13.50;99.90;;;;;;6219710;23;19915;-72
2022/04/01 05:33:00;;;;;;;;;;;13.60;99.90;;;;;;6246979;23;19904;-72
2022/04/01 05:35:29;;;;;;;;;;;13.70;99.90;;;;;;6246466;23;19904;-72
2022/04/01 05:37:57;;;;;;;;;;;13.70;99.90;;;;;;6219548;23;19979;-73
2022/04/01 05:40:23;;;;;;;;;;;13.80;99.90;;;;;;6246720;23;20282;-72
2022/04/01 05:42:52;;;;;;;;;;;13.80;99.90;;;;;;6218883;23;19939;-72
2022/04/01 05:45:19;;;;;;;;;;;14.10;99.90;;;;;;6247223;23;19907;-73
2022/04/01 05:47:46;;;;;;;;;;;14.30;99.90;;;;;;6219384;23;20210;-73
2022/04/01 05:50:13;;;;;;;;;;;14.70;99.90;;;;;;6245996;23;19911;-73
2022/04/01 05:52:40;;;;;;;;;;;15.20;99.90;;;;;;6218305;23;19903;-71
2022/04/01 05:55:07;;;;;;;;;;;15.40;99.90;;;;;;6245489;23;19953;-73
2022/04/01 05:57:33;;;;;;;;;;;15.50;99.90;;;;;;6245139;23;19931;-72
2022/04/01 05:59:58;;;;;;;;;;;15.50;99.90;;;;;;6217879;23;19904;-73
2022/04/01 06:02:43;;;;;;;;;;;15.50;99.90;;;;;;6245032;23;20041;-73
2022/04/01 06:05:42;;;;;;;;;;;15.40;99.90;;;;;;6245291;23;19943;-70
2022/04/01 06:08:14;;;;;;;;;;;15.40;99.90;;;;;;6244413;23;20278;-71
2022/04/01 06:10:47;;;;;;;;;;;15.40;99.90;;;;;;6246224;23;19986;-70
2022/04/01 06:13:23;;;;;;;;;;;15.30;99.90;;;;;;6244919;23;19904;-72
2022/04/01 06:16:04;;;;;;;;;;;15.40;99.90;;;;;;6244776;23;20240;-71
2022/04/01 06:18:55;;;;;;;;;;;15.30;99.90;;;;;;6218632;23;20069;-72
2022/04/01 06:21:23;;;;;;;;;;;15.20;99.90;;;;;;6225747;23;19916;-72
2022/04/01 06:24:00;;;;;;;;;;;15.00;99.90;;;;;;6246219;23;19910;-71
2022/04/01 06:26:28;;;;;;;;;;;15.00;99.90;;;;;;6219191;23;19904;-66
2022/04/01 06:29:01;;;;;;;;;;;15.10;99.90;;;;;;6245914;23;19931;-70
2022/04/01 06:31:26;;;;;;;;;;;15.00;99.90;;;;;;6246107;23;20271;-73
2022/04/01 06:34:03;;;;;;;;;;;15.00;99.90;;;;;;6246185;23;19908;-71
2022/04/01 06:36:35;;;;;;;;;;;15.10;99.90;;;;;;6245833;23;20313;-70
2022/04/01 06:39:05;;;;;;;;;;;15.30;99.90;;;;;;6219569;23;20248;-69
2022/04/01 06:41:35;;;;;;;;;;;15.40;99.90;;;;;;6245865;23;19922;-70
2022/04/01 06:44:01;;;;;;;;;;;15.40;99.90;;;;;;6245629;23;19903;-69
2022/04/01 06:46:27;;;;;;;;;;;15.30;99.90;;;;;;6218397;23;19961;-70
2022/04/01 06:48:53;;;;;;;;;;;15.10;99.90;;;;;;6246288;23;19904;-70
2022/04/01 06:51:19;;;;;;;;;;;14.90;99.90;;;;;;6245862;23;19910;-70
2022/04/01 06:53:45;;;;;;;;;;;15.00;99.90;;;;;;6245473;23;19927;-70
2022/04/01 06:56:11;;;;;;;;;;;15.10;99.90;;;;;;6245849;23;20268;-72
2022/04/01 06:58:40;;;;;;;;;;;15.50;99.90;;;;;;6245514;23;19978;-70
2022/04/01 07:01:06;;;;;;;;;;;15.70;99.90;;;;;;6218128;23;19911;-71
2022/04/01 07:03:33;;;;;;;;;;;15.70;99.90;;;;;;6245526;23;19931;-69
2022/04/01 07:05:59;;;;;;;;;;;15.60;99.90;;;;;;6245266;23;19931;-70
2022/04/01 07:08:25;;;;;;;;;;;15.60;99.90;;;;;;6218323;23;19950;-71
2022/04/01 07:10:51;;;;;;;;;;;15.70;99.90;;;;;;6218594;23;19904;-71
2022/04/01 07:13:16;;;;;;;;;;;15.80;99.90;;;;;;6245980;23;19911;-68
2022/04/01 07:15:45;;;;;;;;;;;16.00;99.90;;;;;;6245601;23;19908;-69
2022/04/01 07:18:11;;;;;;;;;;;16.20;99.90;;;;;;6245074;23;20078;-69
2022/04/01 07:20:37;;;;;;;;;;;16.20;99.90;;;;;;6245852;23;19993;-69
2022/04/01 07:23:03;;;;;;;;;;;16.30;99.90;;;;;;6219748;23;20378;-69
2022/04/01 07:25:30;;;;;;;;;;;16.40;99.90;;;;;;6245649;23;19997;-70
2022/04/01 07:27:55;;;;;;;;;;;16.50;99.90;;;;;;6219099;23;20293;-69
2022/04/01 07:30:21;;;;;;;;;;;17.40;99.90;;;;;;6245638;23;19931;-68
2022/04/01 07:32:50;;;;;;;;;;;18.00;99.90;;;;;;6245826;23;19963;-69
2022/04/01 07:35:16;;;;;;;;;;;18.40;99.90;;;;;;6218484;23;19903;-70
2022/04/01 07:37:45;;;;;;;;;;;18.40;99.90;;;;;;6217692;23;20347;-70
2022/04/01 07:40:11;;;;;;;;;;;18.40;99.90;;;;;;6245633;23;19904;-70
2022/04/01 07:42:38;;;;;;;;;;;18.30;99.90;;;;;;6245597;23;20332;-71
2022/04/01 07:45:04;;;;;;;;;;;18.70;99.90;;;;;;6245612;23;19904;-70
2022/04/01 07:47:32;;;;;;;;;;;19.20;99.90;;;;;;6245071;23;19904;-70
2022/04/01 07:49:59;;;;;;;;;;;19.20;99.90;;;;;;6244712;23;19904;-70
2022/04/01 07:52:24;;;;;;;;;;;19.30;99.90;;;;;;6245459;23;19904;-71
2022/04/01 07:54:51;;;;;;;;;;;18.90;99.90;;;;;;6244828;23;20042;-70
2022/04/01 07:57:18;;;;;;;;;;;18.80;99.90;;;;;;6244453;23;19904;-71
2022/04/01 07:59:44;;;;;;;;;;;18.70;99.90;;;;;;6244639;23;19934;-71
2022/04/01 08:02:10;;;;;;;;;;;18.60;99.90;;;;;;6244588;23;19911;-70
2022/04/01 08:04:36;;;;;;;;;;;19.10;99.90;;;;;;6244554;23;20013;-71
2022/04/01 08:07:02;;;;;;;;;;;19.10;99.90;;;;;;6246313;23;19908;-70
2022/04/01 08:09:28;;;;;;;;;;;19.30;99.90;;;;;;6219526;23;19904;-71
2022/04/01 08:11:55;;;;;;;;;;;19.40;99.90;;;;;;6246295;23;19903;-70
2022/04/01 08:14:21;;;;;;;;;;;19.20;99.90;;;;;;6246725;23;20309;-71
2022/04/01 08:16:47;;;;;;;;;;;18.70;99.90;;;;;;6247201;23;19910;-69
2022/04/01 08:19:13;;;;;;;;;;;18.50;99.90;;;;;;6246723;23;19916;-68
2022/04/01 08:21:40;;;;;;;;;;;18.40;99.90;;;;;;6247197;23;19912;-69
2022/04/01 08:24:09;;;;;;;;;;;18.30;99.90;;;;;;6247125;23;20002;-70
2022/04/01 08:26:37;;;;;;;;;;;18.20;99.90;;;;;;6246011;23;20502;-71
2022/04/01 08:29:03;;;;;;;;;;;18.30;99.90;;;;;;6246710;23;20268;-69
2022/04/01 08:31:30;;;;;;;;;;;17.90;99.90;;;;;;6247405;23;19903;-70
2022/04/01 08:33:56;;;;;;;;;;;18.20;99.90;;;;;;6246492;23;19907;-70
2022/04/01 08:36:22;;;;;;;;;;;18.40;99.90;;;;;;6246440;23;19957;-70
2022/04/01 08:38:48;;;;;;;;;;;18.50;99.90;;;;;;6247155;23;20305;-71
2022/04/01 08:41:18;;;;;;;;;;;18.60;99.90;;;;;;6219752;23;20003;-71
2022/04/01 08:43:45;;;;;;;;;;;18.60;99.90;;;;;;6246779;23;19982;-70
2022/04/01 08:46:12;;;;;;;;;;;18.70;99.90;;;;;;6219771;23;19961;-69
2022/04/01 08:48:38;;;;;;;;;;;18.70;99.90;;;;;;6246070;23;19907;-69
2022/04/01 08:51:04;;;;;;;;;;;18.50;99.90;;;;;;6246317;23;19915;-70
2022/04/01 08:53:34;;;;;;;;;;;18.30;99.90;;;;;;6246062;23;19911;-69
2022/04/01 08:56:00;;;;;;;;;;;18.20;99.90;;;;;;6245646;23;19907;-70
2022/04/01 08:58:26;;;;;;;;;;;18.00;99.90;;;;;;6245404;23;20313;-69
2022/04/01 09:00:52;;;;;;;;;;;17.90;99.90;;;;;;6245708;23;20395;-68
2022/04/01 09:03:19;;;;;;;;;;;17.80;99.90;;;;;;6218869;23;19904;-69
2022/04/01 09:05:46;;;;;;;;;;;17.70;99.90;;;;;;6245842;23;19903;-69
2022/04/01 09:08:14;;;;;;;;;;;17.70;99.90;;;;;;6245696;23;20335;-70
2022/04/01 09:10:51;;;;;;;;;;;17.70;99.90;;;;;;6245499;23;19997;-69
2022/04/01 09:13:17;;;;;;;;;;;17.90;99.90;;;;;;6245398;23;19904;-68
2022/04/01 09:15:43;;;;;;;;;;;18.20;99.90;;;;;;6245619;23;19978;-70
2022/04/01 09:18:10;;;;;;;;;;;18.70;99.90;;;;;;6244903;23;19916;-69
2022/04/01 09:20:43;;;;;;;;;;;18.90;99.90;;;;;;6245716;23;19931;-71
2022/04/01 09:23:09;;;;;;;;;;;19.30;99.90;;;;;;6245446;23;19969;-68
2022/04/01 09:25:35;;;;;;;;;;;19.00;99.90;;;;;;6245818;23;20312;-68
2022/04/01 09:28:01;;;;;;;;;;;19.10;99.90;;;;;;6246341;23;19975;-69
2022/04/01 09:30:28;;;;;;;;;;;19.30;99.90;;;;;;6219143;23;20307;-69
2022/04/01 09:32:58;;;;;;;;;;;19.40;99.90;;;;;;6219563;23;19903;-74
2022/04/01 09:35:30;;;;;;;;;;;19.10;99.90;;;;;;6245698;23;19903;-70
2022/04/01 09:38:04;;;;;;;;;;;19.30;99.90;;;;;;6245647;23;19979;-71
2022/04/01 09:40:30;;;;;;;;;;;19.10;99.90;;;;;;6245683;23;20313;-71
2022/04/01 09:43:02;;;;;;;;;;;18.80;99.90;;;;;;6218653;23;19962;-71
2022/04/01 09:45:32;;;;;;;;;;;18.60;99.90;;;;;;6246279;23;19911;-70
2022/04/01 09:48:02;;;;;;;;;;;18.40;99.90;;;;;;6245301;23;19926;-70
2022/04/01 09:50:29;;;;;;;;;;;18.30;99.90;;;;;;6245246;23;19904;-71
2022/04/01 09:53:05;;;;;;;;;;;18.40;99.90;;;;;;6245548;23;19903;-70
2022/04/01 09:55:34;;;;;;;;;;;18.50;99.90;;;;;;6245766;23;19957;-70
2022/04/01 09:58:00;;;;;;;;;;;18.50;99.90;;;;;;6218430;23;19927;-71
2022/04/01 10:00:26;;;;;;;;;;;18.50;99.90;;;;;;6245465;23;19908;-71
2022/04/01 10:02:52;;;;;;;;;;;18.50;99.90;;;;;;6245060;23;19995;-70
2022/04/01 10:05:18;;;;;;;;;;;18.50;99.90;;;;;;6245014;23;20174;-70
2022/04/01 10:07:43;;;;;;;;;;;18.40;99.90;;;;;;6244581;23;19963;-70
2022/04/01 10:10:10;;;;;;;;;;;18.60;99.90;;;;;;6245095;23;19904;-71
2022/04/01 10:12:38;;;;;;;;;;;18.50;99.90;;;;;;6244984;23;19910;-69
2022/04/01 10:15:07;;;;;;;;;;;18.30;99.90;;;;;;6244982;23;19904;-71
2022/04/01 10:17:36;;;;;;;;;;;18.40;99.90;;;;;;6244764;23;19959;-69
2022/04/01 10:20:02;;;;;;;;;;;18.40;99.90;;;;;;6244571;23;20324;-71
2022/04/01 10:22:28;;;;;;;;;;;18.50;99.90;;;;;;6244877;23;20222;-71
2022/04/01 10:24:54;;;;;;;;;;;18.60;99.90;;;;;;6245044;23;19931;-70
2022/04/01 10:27:32;;;;;;;;;;;18.80;99.90;;;;;;6245645;23;20185;-70
2022/04/01 10:29:58;;;;;;;;;;;18.70;99.90;;;;;;6245290;23;19926;-70
2022/04/01 10:32:29;;;;;;;;;;;19.20;99.90;;;;;;6245938;23;19904;-71
2022/04/01 10:34:58;;;;;;;;;;;19.10;99.90;;;;;;6245220;23;19904;-68
2022/04/01 10:37:25;;;;;;;;;;;19.10;99.90;;;;;;6245343;23;19910;-71
2022/04/01 10:40:09;;;;;;;;;;;19.20;99.90;;;;;;6246085;23;20293;-70
2022/04/01 10:42:37;;;;;;;;;;;18.90;99.90;;;;;;6245676;23;19982;-70
2022/04/01 10:45:08;;;;;;;;;;;18.90;99.90;;;;;;6245641;23;20370;-70
2022/04/01 10:53:33;;;;;;;;;;;19.40;99.90;;;;;;6246044;23;19934;-71
2022/04/01 10:56:17;;;;;;;;;;;19.50;99.90;;;;;;6245713;23;19904;-71
2022/04/01 10:59:03;;;;;;;;;;;19.50;99.90;;;;;;6245389;23;20344;-71
2022/04/01 11:01:44;;;;;;;;;;;19.70;99.90;;;;;;6218133;23;19912;-70
2022/04/01 11:04:12;;;;;;;;;;;19.80;99.90;;;;;;6244506;23;19903;-70
2022/04/01 11:06:58;;;;;;;;;;;19.90;99.90;;;;;;6244910;23;19919;-69
2022/04/01 11:09:42;;;;;;;;;;;19.90;99.90;;;;;;6245118;23;19903;-70
2022/04/01 11:15:11;;;;;;;;;;;20.40;99.90;;;;;;6244812;23;19908;-70
2022/04/01 11:17:37;;;;;;;;;;;20.40;99.90;;;;;;6244626;23;19939;-70
2022/04/01 11:20:33;;;;;;;;;;;20.10;99.90;;;;;;6245695;23;19908;-70
2022/04/01 11:23:01;;;;;;;;;;;20.20;99.90;;;;;;6245500;23;19918;-70
2022/04/01 11:25:35;;;;;;;;;;;20.10;99.90;;;;;;6245178;23;19910;-70
2022/04/01 11:28:03;;;;;;;;;;;20.20;99.90;;;;;;6245370;23;19903;-71
2022/04/01 11:30:30;;;;;;;;;;;20.00;99.90;;;;;;6218241;23;19940;-71
2022/04/01 11:32:57;;;;;;;;;;;20.10;99.90;;;;;;6245273;23;19903;-71
2022/04/01 11:35:24;;;;;;;;;;;20.20;99.90;;;;;;6245538;23;19982;-71
2022/04/01 11:37:50;;;;;;;;;;;20.30;99.90;;;;;;6245247;23;19904;-71
2022/04/01 11:40:17;;;;;;;;;;;20.30;99.90;;;;;;6244816;23;19908;-71
2022/04/01 11:42:50;;;;;;;;;;;20.20;99.90;;;;;;6245489;23;19915;-72
2022/04/01 11:45:16;;;;;;;;;;;20.30;99.90;;;;;;6245775;23;19904;-72
2022/04/01 11:47:42;;;;;;;;;;;20.20;99.90;;;;;;6245115;23;19926;-71
2022/04/01 11:50:15;;;;;;;;;;;20.20;99.90;;;;;;6245653;23;20282;-72
2022/04/01 11:52:44;;;;;;;;;;;19.90;99.90;;;;;;6245228;23;19937;-70
2022/04/01 11:55:13;;;;;;;;;;;19.70;99.90;;;;;;6245326;23;19938;-71
2022/04/01 11:57:40;;;;;;;;;;;19.40;99.90;;;;;;6245255;23;20293;-71
2022/04/01 12:00:11;;;;;;;;;;;19.40;99.90;;;;;;6245095;23;19904;-71
2022/04/01 12:02:38;;;;;;;;;;;19.50;99.90;;;;;;6246391;23;19994;-71
2022/04/01 12:05:10;;;;;;;;;;;19.20;99.90;;;;;;6245671;23;19919;-71
2022/04/01 12:10:22;;;;;;;;;;;19.10;99.90;;;;;;6245866;23;19911;-70
2022/04/01 12:12:52;;;;;;;;;;;19.40;99.90;;;;;;6245920;23;20347;-70
2022/04/01 12:15:17;;;;;;;;;;;19.20;99.90;;;;;;6245512;23;19904;-70
2022/04/01 12:17:49;;;;;;;;;;;19.30;99.90;;;;;;6245589;23;19911;-71
2022/04/01 12:20:15;;;;;;;;;;;19.60;99.90;;;;;;6246660;23;19912;-71
2022/04/01 12:22:41;;;;;;;;;;;19.80;99.90;;;;;;6246664;23;19915;-70
2022/04/01 12:25:07;;;;;;;;;;;19.80;99.90;;;;;;6247233;23;19919;-70
2022/04/01 12:27:33;;;;;;;;;;;19.80;99.90;;;;;;6246564;23;19914;-70
2022/04/01 12:29:59;;;;;;;;;;;19.60;99.90;;;;;;6245918;23;19904;-71
2022/04/01 12:32:24;;;;;;;;;;;19.70;99.90;;;;;;6246602;23;19910;-71
2022/04/01 12:34:51;;;;;;;;;;;19.30;99.90;;;;;;6246127;23;19909;-70
2022/04/01 12:37:17;;;;;;;;;;;19.30;99.90;;;;;;6245886;23;20155;-70
2022/04/01 12:39:46;;;;;;;;;;;19.30;99.90;;;;;;6245974;23;20033;-71
2022/04/01 12:42:14;;;;;;;;;;;19.30;99.90;;;;;;6246674;23;19912;-70
2022/04/01 12:44:44;;;;;;;;;;;19.00;99.90;;;;;;6246009;23;19904;-70
2022/04/01 12:47:12;;;;;;;;;;;18.80;99.90;;;;;;6219390;23;19903;-70
2022/04/01 12:49:42;;;;;;;;;;;18.60;99.90;;;;;;6245922;23;19903;-70
2022/04/01 12:52:15;;;;;;;;;;;18.20;99.90;;;;;;6246408;23;19904;-70
2022/04/01 12:54:47;;;;;;;;;;;18.00;99.90;;;;;;6246828;23;19966;-69
2022/04/01 12:57:13;;;;;;;;;;;18.20;99.90;;;;;;6247860;23;19962;-70
2022/04/01 12:59:43;;;;;;;;;;;18.10;99.90;;;;;;6247269;23;19903;-71
2022/04/01 13:02:12;;;;;;;;;;;17.90;99.90;;;;;;6247312;23;19919;-69
2022/04/01 13:04:46;;;;;;;;;;;17.50;99.90;;;;;;6247675;23;19911;-71
2022/04/01 13:07:15;;;;;;;;;;;17.60;99.90;;;;;;6247615;23;19904;-72
2022/04/01 13:09:58;;;;;;;;;;;17.60;99.90;;;;;;6247708;23;19911;-71
2022/04/01 13:12:44;;;;;;;;;;;17.70;99.90;;;;;;6247110;23;19912;-72
2022/04/01 13:15:11;;;;;;;;;;;17.80;99.90;;;;;;6219120;23;19911;-72
2022/04/01 13:17:44;;;;;;;;;;;17.90;99.90;;;;;;6247312;23;19912;-71
2022/04/01 13:20:11;;;;;;;;;;;18.10;99.90;;;;;;6220412;23;19914;-71
2022/04/01 13:22:41;;;;;;;;;;;17.90;99.90;;;;;;6247452;23;19908;-71
2022/04/01 13:25:08;;;;;;;;;;;17.60;99.90;;;;;;6247842;23;19965;-71
2022/04/01 13:27:44;;;;;;;;;;;17.70;99.90;;;;;;6247199;23;19947;-71
2022/04/01 13:30:10;;;;;;;;;;;17.40;99.90;;;;;;6247422;23;19957;-66
2022/04/01 13:32:36;;;;;;;;;;;17.10;99.90;;;;;;6248257;23;19979;-71
2022/04/01 13:35:03;;;;;;;;;;;17.10;99.90;;;;;;6247207;23;19907;-73
2022/04/01 13:37:29;;;;;;;;;;;17.10;99.90;;;;;;6220431;23;19925;-69
2022/04/01 13:39:55;;;;;;;;;;;17.10;99.90;;;;;;6247795;23;19982;-71
2022/04/01 13:42:23;;;;;;;;;;;17.00;99.90;;;;;;6247215;23;19915;-72
2022/04/01 13:44:50;;;;;;;;;;;17.10;99.90;;;;;;6247014;23;19903;-71
2022/04/01 13:47:17;;;;;;;;;;;17.10;99.90;;;;;;6247072;23;19907;-70
2022/04/01 13:49:45;;;;;;;;;;;17.20;99.90;;;;;;6219617;23;19986;-70
2022/04/01 13:52:13;;;;;;;;;;;17.20;99.90;;;;;;6245869;23;19904;-71
2022/04/01 13:54:39;;;;;;;;;;;17.20;99.90;;;;;;6246195;23;19907;-70
2022/04/01 13:57:05;;;;;;;;;;;17.30;99.90;;;;;;6246292;23;19910;-69
2022/04/01 13:59:31;;;;;;;;;;;17.20;99.90;;;;;;6246043;23;20384;-69
2022/04/01 14:01:57;;;;;;;;;;;16.90;99.90;;;;;;6246025;23;20313;-70
2022/04/01 14:04:23;;;;;;;;;;;17.00;99.90;;;;;;6245918;23;19907;-70
2022/04/01 14:06:52;;;;;;;;;;;17.10;99.90;;;;;;6219450;23;20380;-71
2022/04/01 14:09:22;;;;;;;;;;;17.10;99.90;;;;;;6219677;23;19915;-72
2022/04/01 14:11:49;;;;;;;;;;;17.20;99.90;;;;;;6246312;23;19910;-70
2022/04/01 14:14:15;;;;;;;;;;;17.50;99.90;;;;;;6246228;23;19990;-70
2022/04/01 14:16:41;;;;;;;;;;;17.70;99.90;;;;;;6246206;23;19994;-71
2022/04/01 14:19:43;;;;;;;;;;;17.80;99.90;;;;;;6245663;23;20018;-71
2022/04/01 14:22:09;;;;;;;;;;;17.50;99.90;;;;;;6244709;23;20222;-70
2022/04/01 14:24:35;;;;;;;;;;;17.40;99.90;;;;;;6244489;23;19991;-71
2022/04/01 14:27:01;;;;;;;;;;;17.50;99.90;;;;;;6218063;23;19904;-71
2022/04/01 14:32:32;;;;;;;;;;;17.60;99.90;;;;;;6244847;23;19910;-72
2022/04/01 14:34:58;;;;;;;;;;;17.60;99.90;;;;;;6244655;23;19903;-72
2022/04/01 14:37:24;;;;;;;;;;;17.50;99.90;;;;;;6245607;23;19903;-72
2022/04/01 14:39:50;;;;;;;;;;;17.50;99.90;;;;;;6246054;23;19938;-72
2022/04/01 14:42:15;;;;;;;;;;;17.40;99.90;;;;;;6246010;23;19916;-71
2022/04/01 14:44:41;;;;;;;;;;;17.50;99.90;;;;;;6245904;23;19945;-72
2022/04/01 14:47:24;;;;;;;;;;;17.60;99.90;;;;;;6245420;23;19904;-71